sensor_id;sensor_type;location;lat;lon;timestamp;P1;durP1;ratioP1;P2;durP2;ratioP2
10910;SDS011;5508;49.150;11.030;2023-07-13T00:01:54;10.13;;;4.50;;
10910;SDS011;5508;49.150;11.030;2023-07-13T00:04:55;4.80;;;3.90;;
10910;SDS011;5508;49.150;11.030;2023-07-13T00:07:56;6.27;;;4.60;;
10910;SDS011;5508;49.150;11.030;2023-07-13T00:10:56;7.70;;;4.23;;
10910;SDS011;5508;49.150;11.030;2023-07-13T00:13:57;4.97;;;4.17;;
10910;SDS011;5508;49.150;11.030;2023-07-13T00:16:57;4.77;;;3.90;;
10910;SDS011;5508;49.150;11.030;2023-07-13T00:20:00;7.90;;;4.30;;
10910;SDS011;5508;49.150;11.030;2023-07-13T00:23:01;5.97;;;3.53;;
10910;SDS011;5508;49.150;11.030;2023-07-13T00:26:02;6.13;;;3.57;;
10910;SDS011;5508;49.150;11.030;2023-07-13T00:29:04;5.57;;;3.90;;
10910;SDS011;5508;49.150;11.030;2023-07-13T00:32:09;4.93;;;4.03;;
10910;SDS011;5508;49.150;11.030;2023-07-13T00:35:12;8.87;;;4.13;;
10910;SDS011;5508;49.150;11.030;2023-07-13T00:38:14;5.07;;;3.93;;
10910;SDS011;5508;49.150;11.030;2023-07-13T00:41:15;7.60;;;3.97;;
10910;SDS011;5508;49.150;11.030;2023-07-13T00:44:16;5.17;;;3.80;;
10910;SDS011;5508;49.150;11.030;2023-07-13T00:47:18;5.23;;;4.03;;
10910;SDS011;5508;49.150;11.030;2023-07-13T00:50:19;9.03;;;3.50;;
10910;SDS011;5508;49.150;11.030;2023-07-13T00:53:21;4.20;;;3.80;;
10910;SDS011;5508;49.150;11.030;2023-07-13T00:56:22;7.07;;;3.67;;
10910;SDS011;5508;49.150;11.030;2023-07-13T00:59:23;4.53;;;3.27;;
10910;SDS011;5508;49.150;11.030;2023-07-13T01:02:25;4.20;;;3.37;;
10910;SDS011;5508;49.150;11.030;2023-07-13T01:05:28;8.83;;;3.10;;
10910;SDS011;5508;49.150;11.030;2023-07-13T01:08:28;6.97;;;2.97;;
10910;SDS011;5508;49.150;11.030;2023-07-13T01:11:29;7.67;;;3.40;;
10910;SDS011;5508;49.150;11.030;2023-07-13T01:14:30;4.00;;;3.00;;
10910;SDS011;5508;49.150;11.030;2023-07-13T01:17:31;3.47;;;2.97;;
10910;SDS011;5508;49.150;11.030;2023-07-13T01:20:33;4.83;;;3.20;;
10910;SDS011;5508;49.150;11.030;2023-07-13T01:23:36;4.53;;;3.03;;
10910;SDS011;5508;49.150;11.030;2023-07-13T01:26:36;4.67;;;3.00;;
10910;SDS011;5508;49.150;11.030;2023-07-13T01:29:37;3.43;;;2.70;;
10910;SDS011;5508;49.150;11.030;2023-07-13T01:32:41;4.13;;;2.60;;
10910;SDS011;5508;49.150;11.030;2023-07-13T01:35:42;3.53;;;3.23;;
10910;SDS011;5508;49.150;11.030;2023-07-13T01:38:44;2.97;;;2.53;;
10910;SDS011;5508;49.150;11.030;2023-07-13T01:41:44;5.53;;;2.70;;
10910;SDS011;5508;49.150;11.030;2023-07-13T01:44:45;4.30;;;3.43;;
10910;SDS011;5508;49.150;11.030;2023-07-13T01:47:46;3.67;;;2.50;;
10910;SDS011;5508;49.150;11.030;2023-07-13T01:50:47;3.13;;;2.83;;
10910;SDS011;5508;49.150;11.030;2023-07-13T01:53:47;5.90;;;2.50;;
10910;SDS011;5508;49.150;11.030;2023-07-13T01:56:48;3.93;;;2.60;;
10910;SDS011;5508;49.150;11.030;2023-07-13T01:59:49;4.00;;;3.13;;
10910;SDS011;5508;49.150;11.030;2023-07-13T02:02:49;3.50;;;3.00;;
10910;SDS011;5508;49.150;11.030;2023-07-13T02:05:50;4.93;;;2.70;;
10910;SDS011;5508;49.150;11.030;2023-07-13T02:08:50;5.20;;;2.93;;
10910;SDS011;5508;49.150;11.030;2023-07-13T02:11:51;4.90;;;2.60;;
10910;SDS011;5508;49.150;11.030;2023-07-13T02:14:52;4.57;;;2.63;;
10910;SDS011;5508;49.150;11.030;2023-07-13T02:17:52;4.50;;;2.23;;
10910;SDS011;5508;49.150;11.030;2023-07-13T02:20:53;4.03;;;2.63;;
10910;SDS011;5508;49.150;11.030;2023-07-13T02:23:54;4.27;;;2.43;;
10910;SDS011;5508;49.150;11.030;2023-07-13T02:26:55;5.00;;;2.30;;
10910;SDS011;5508;49.150;11.030;2023-07-13T02:29:55;3.63;;;2.40;;
10910;SDS011;5508;49.150;11.030;2023-07-13T02:32:56;2.53;;;2.00;;
10910;SDS011;5508;49.150;11.030;2023-07-13T02:35:57;2.80;;;2.20;;
10910;SDS011;5508;49.150;11.030;2023-07-13T02:39:00;2.57;;;2.00;;
10910;SDS011;5508;49.150;11.030;2023-07-13T02:42:01;4.13;;;2.20;;
10910;SDS011;5508;49.150;11.030;2023-07-13T02:45:01;3.03;;;1.63;;
10910;SDS011;5508;49.150;11.030;2023-07-13T02:48:02;3.53;;;2.00;;
10910;SDS011;5508;49.150;11.030;2023-07-13T02:51:03;3.43;;;2.40;;
10910;SDS011;5508;49.150;11.030;2023-07-13T02:54:04;3.20;;;2.33;;
10910;SDS011;5508;49.150;11.030;2023-07-13T02:57:05;2.47;;;2.27;;
10910;SDS011;5508;49.150;11.030;2023-07-13T03:00:06;4.27;;;2.67;;
10910;SDS011;5508;49.150;11.030;2023-07-13T03:03:07;2.60;;;2.30;;
10910;SDS011;5508;49.150;11.030;2023-07-13T03:06:08;3.93;;;2.17;;
10910;SDS011;5508;49.150;11.030;2023-07-13T03:09:09;2.80;;;2.33;;
10910;SDS011;5508;49.150;11.030;2023-07-13T03:12:09;4.83;;;2.40;;
10910;SDS011;5508;49.150;11.030;2023-07-13T03:15:10;2.10;;;1.90;;
10910;SDS011;5508;49.150;11.030;2023-07-13T03:18:10;3.00;;;2.30;;
10910;SDS011;5508;49.150;11.030;2023-07-13T03:21:11;3.43;;;2.00;;
10910;SDS011;5508;49.150;11.030;2023-07-13T03:24:12;2.30;;;1.90;;
10910;SDS011;5508;49.150;11.030;2023-07-13T03:27:12;4.20;;;2.30;;
10910;SDS011;5508;49.150;11.030;2023-07-13T03:30:13;4.57;;;2.10;;
10910;SDS011;5508;49.150;11.030;2023-07-13T03:33:13;4.43;;;2.37;;
10910;SDS011;5508;49.150;11.030;2023-07-13T03:36:18;2.50;;;2.30;;
10910;SDS011;5508;49.150;11.030;2023-07-13T03:39:24;3.60;;;2.50;;
10910;SDS011;5508;49.150;11.030;2023-07-13T03:42:24;4.43;;;1.93;;
10910;SDS011;5508;49.150;11.030;2023-07-13T03:45:25;7.10;;;2.20;;
10910;SDS011;5508;49.150;11.030;2023-07-13T03:48:26;3.00;;;1.90;;
10910;SDS011;5508;49.150;11.030;2023-07-13T03:51:26;1.97;;;1.60;;
10910;SDS011;5508;49.150;11.030;2023-07-13T03:54:27;4.37;;;1.60;;
10910;SDS011;5508;49.150;11.030;2023-07-13T03:57:28;4.30;;;2.13;;
10910;SDS011;5508;49.150;11.030;2023-07-13T04:00:28;2.27;;;1.90;;
10910;SDS011;5508;49.150;11.030;2023-07-13T04:03:29;3.47;;;2.20;;
10910;SDS011;5508;49.150;11.030;2023-07-13T04:06:32;2.03;;;1.70;;
10910;SDS011;5508;49.150;11.030;2023-07-13T04:09:33;4.87;;;2.00;;
10910;SDS011;5508;49.150;11.030;2023-07-13T04:12:34;2.97;;;2.03;;
10910;SDS011;5508;49.150;11.030;2023-07-13T04:15:35;3.03;;;2.10;;
10910;SDS011;5508;49.150;11.030;2023-07-13T04:18:36;4.30;;;2.37;;
10910;SDS011;5508;49.150;11.030;2023-07-13T04:21:36;4.43;;;2.30;;
10910;SDS011;5508;49.150;11.030;2023-07-13T04:24:37;3.40;;;1.97;;
10910;SDS011;5508;49.150;11.030;2023-07-13T04:27:38;2.10;;;1.90;;
10910;SDS011;5508;49.150;11.030;2023-07-13T04:30:39;5.03;;;1.83;;
10910;SDS011;5508;49.150;11.030;2023-07-13T04:33:40;3.63;;;1.93;;
10910;SDS011;5508;49.150;11.030;2023-07-13T04:36:40;4.60;;;1.97;;
10910;SDS011;5508;49.150;11.030;2023-07-13T04:39:41;5.57;;;1.67;;
10910;SDS011;5508;49.150;11.030;2023-07-13T04:42:41;5.37;;;1.97;;
10910;SDS011;5508;49.150;11.030;2023-07-13T04:45:42;4.67;;;2.10;;
10910;SDS011;5508;49.150;11.030;2023-07-13T04:48:43;3.07;;;2.00;;
10910;SDS011;5508;49.150;11.030;2023-07-13T04:51:43;3.40;;;1.90;;
10910;SDS011;5508;49.150;11.030;2023-07-13T04:54:44;3.23;;;2.03;;
10910;SDS011;5508;49.150;11.030;2023-07-13T04:57:45;2.00;;;1.60;;
10910;SDS011;5508;49.150;11.030;2023-07-13T05:00:46;4.03;;;1.90;;
10910;SDS011;5508;49.150;11.030;2023-07-13T05:03:47;3.60;;;1.93;;
10910;SDS011;5508;49.150;11.030;2023-07-13T05:06:47;2.27;;;1.90;;
10910;SDS011;5508;49.150;11.030;2023-07-13T05:09:48;4.27;;;1.70;;
10910;SDS011;5508;49.150;11.030;2023-07-13T05:12:49;3.73;;;1.60;;
10910;SDS011;5508;49.150;11.030;2023-07-13T05:15:57;1.97;;;1.60;;
10910;SDS011;5508;49.150;11.030;2023-07-13T05:19:02;9.37;;;2.17;;
10910;SDS011;5508;49.150;11.030;2023-07-13T05:22:02;2.50;;;1.40;;
10910;SDS011;5508;49.150;11.030;2023-07-13T05:25:04;4.43;;;1.73;;
10910;SDS011;5508;49.150;11.030;2023-07-13T05:28:06;5.03;;;1.70;;
10910;SDS011;5508;49.150;11.030;2023-07-13T05:31:07;3.00;;;1.67;;
10910;SDS011;5508;49.150;11.030;2023-07-13T05:34:09;2.20;;;1.40;;
10910;SDS011;5508;49.150;11.030;2023-07-13T05:37:10;3.30;;;1.60;;
10910;SDS011;5508;49.150;11.030;2023-07-13T05:40:10;3.30;;;1.60;;
10910;SDS011;5508;49.150;11.030;2023-07-13T05:43:11;3.73;;;1.60;;
10910;SDS011;5508;49.150;11.030;2023-07-13T05:46:12;5.60;;;1.70;;
10910;SDS011;5508;49.150;11.030;2023-07-13T05:49:12;3.40;;;1.60;;
10910;SDS011;5508;49.150;11.030;2023-07-13T05:52:13;2.67;;;1.67;;
10910;SDS011;5508;49.150;11.030;2023-07-13T05:55:13;1.80;;;1.33;;
10910;SDS011;5508;49.150;11.030;2023-07-13T05:58:15;2.67;;;1.73;;
10910;SDS011;5508;49.150;11.030;2023-07-13T06:01:17;3.07;;;1.30;;
10910;SDS011;5508;49.150;11.030;2023-07-13T06:04:19;5.03;;;1.73;;
10910;SDS011;5508;49.150;11.030;2023-07-13T06:07:20;3.77;;;1.83;;
10910;SDS011;5508;49.150;11.030;2023-07-13T06:10:20;3.47;;;1.50;;
10910;SDS011;5508;49.150;11.030;2023-07-13T06:13:21;2.67;;;1.83;;
10910;SDS011;5508;49.150;11.030;2023-07-13T06:16:22;2.77;;;1.63;;
10910;SDS011;5508;49.150;11.030;2023-07-13T06:19:23;2.17;;;1.40;;
10910;SDS011;5508;49.150;11.030;2023-07-13T06:22:23;3.47;;;1.50;;
10910;SDS011;5508;49.150;11.030;2023-07-13T06:25:24;2.57;;;1.40;;
10910;SDS011;5508;49.150;11.030;2023-07-13T06:28:27;8.53;;;1.90;;
10910;SDS011;5508;49.150;11.030;2023-07-13T06:31:29;3.53;;;1.60;;
10910;SDS011;5508;49.150;11.030;2023-07-13T06:34:29;3.50;;;1.40;;
10910;SDS011;5508;49.150;11.030;2023-07-13T06:37:30;5.07;;;1.50;;
10910;SDS011;5508;49.150;11.030;2023-07-13T06:40:31;3.10;;;1.20;;
10910;SDS011;5508;49.150;11.030;2023-07-13T06:43:31;2.87;;;1.60;;
10910;SDS011;5508;49.150;11.030;2023-07-13T06:46:32;3.87;;;1.63;;
10910;SDS011;5508;49.150;11.030;2023-07-13T06:49:33;2.17;;;1.50;;
10910;SDS011;5508;49.150;11.030;2023-07-13T06:52:33;2.87;;;1.40;;
10910;SDS011;5508;49.150;11.030;2023-07-13T06:55:34;5.03;;;1.63;;
10910;SDS011;5508;49.150;11.030;2023-07-13T06:58:34;4.47;;;1.63;;
10910;SDS011;5508;49.150;11.030;2023-07-13T07:01:35;2.70;;;1.47;;
10910;SDS011;5508;49.150;11.030;2023-07-13T07:04:36;6.40;;;2.13;;
10910;SDS011;5508;49.150;11.030;2023-07-13T07:07:36;5.00;;;1.40;;
10910;SDS011;5508;49.150;11.030;2023-07-13T07:10:37;4.40;;;1.70;;
10910;SDS011;5508;49.150;11.030;2023-07-13T07:13:37;6.07;;;1.60;;
10910;SDS011;5508;49.150;11.030;2023-07-13T07:16:38;3.47;;;1.20;;
10910;SDS011;5508;49.150;11.030;2023-07-13T07:19:39;3.23;;;1.40;;
10910;SDS011;5508;49.150;11.030;2023-07-13T07:22:40;3.00;;;1.43;;
10910;SDS011;5508;49.150;11.030;2023-07-13T07:25:43;4.57;;;1.23;;
10910;SDS011;5508;49.150;11.030;2023-07-13T07:28:44;3.93;;;1.67;;
10910;SDS011;5508;49.150;11.030;2023-07-13T07:31:45;3.45;;;1.35;;
10910;SDS011;5508;49.150;11.030;2023-07-13T07:34:45;3.15;;;1.23;;
10910;SDS011;5508;49.150;11.030;2023-07-13T07:37:46;5.53;;;1.70;;
10910;SDS011;5508;49.150;11.030;2023-07-13T07:40:47;2.15;;;1.35;;
10910;SDS011;5508;49.150;11.030;2023-07-13T07:43:48;4.33;;;1.60;;
10910;SDS011;5508;49.150;11.030;2023-07-13T07:46:49;2.40;;;1.47;;
10910;SDS011;5508;49.150;11.030;2023-07-13T07:49:49;3.13;;;1.25;;
10910;SDS011;5508;49.150;11.030;2023-07-13T07:52:50;2.30;;;1.35;;
10910;SDS011;5508;49.150;11.030;2023-07-13T07:55:51;2.67;;;1.23;;
10910;SDS011;5508;49.150;11.030;2023-07-13T07:58:52;2.30;;;1.27;;
10910;SDS011;5508;49.150;11.030;2023-07-13T08:01:52;2.05;;;1.30;;
10910;SDS011;5508;49.150;11.030;2023-07-13T08:04:53;2.92;;;1.10;;
10910;SDS011;5508;49.150;11.030;2023-07-13T08:07:54;2.88;;;1.50;;
10910;SDS011;5508;49.150;11.030;2023-07-13T08:10:55;1.88;;;1.05;;
10910;SDS011;5508;49.150;11.030;2023-07-13T08:13:55;4.18;;;1.48;;
10910;SDS011;5508;49.150;11.030;2023-07-13T08:16:56;1.65;;;1.20;;
10910;SDS011;5508;49.150;11.030;2023-07-13T08:19:58;5.30;;;1.30;;
10910;SDS011;5508;49.150;11.030;2023-07-13T08:22:59;4.10;;;1.40;;
10910;SDS011;5508;49.150;11.030;2023-07-13T08:25:59;6.13;;;1.92;;
10910;SDS011;5508;49.150;11.030;2023-07-13T08:29:01;2.17;;;1.20;;
10910;SDS011;5508;49.150;11.030;2023-07-13T08:32:02;2.45;;;1.38;;
10910;SDS011;5508;49.150;11.030;2023-07-13T08:35:05;2.45;;;1.02;;
10910;SDS011;5508;49.150;11.030;2023-07-13T08:38:06;5.32;;;1.30;;
10910;SDS011;5508;49.150;11.030;2023-07-13T08:41:14;2.13;;;1.15;;
10910;SDS011;5508;49.150;11.030;2023-07-13T08:44:25;1.77;;;1.00;;
10910;SDS011;5508;49.150;11.030;2023-07-13T08:47:37;5.25;;;1.35;;
10910;SDS011;5508;49.150;11.030;2023-07-13T08:50:48;2.42;;;0.95;;
10910;SDS011;5508;49.150;11.030;2023-07-13T08:53:58;4.78;;;1.45;;
10910;SDS011;5508;49.150;11.030;2023-07-13T08:57:13;2.20;;;0.88;;
10910;SDS011;5508;49.150;11.030;2023-07-13T09:00:15;1.70;;;1.00;;
10910;SDS011;5508;49.150;11.030;2023-07-13T09:03:18;1.58;;;1.13;;
10910;SDS011;5508;49.150;11.030;2023-07-13T09:06:23;3.60;;;1.33;;
10910;SDS011;5508;49.150;11.030;2023-07-13T09:16:40;3.85;;;1.40;;
10910;SDS011;5508;49.150;11.030;2023-07-13T09:19:42;4.40;;;1.58;;
10910;SDS011;5508;49.150;11.030;2023-07-13T09:22:46;4.97;;;1.25;;
10910;SDS011;5508;49.150;11.030;2023-07-13T09:25:48;4.18;;;1.40;;
10910;SDS011;5508;49.150;11.030;2023-07-13T09:29:04;2.47;;;1.30;;
10910;SDS011;5508;49.150;11.030;2023-07-13T09:32:13;4.75;;;1.25;;
10910;SDS011;5508;49.150;11.030;2023-07-13T09:35:19;2.78;;;1.17;;
10910;SDS011;5508;49.150;11.030;2023-07-13T09:38:28;7.68;;;1.35;;
10910;SDS011;5508;49.150;11.030;2023-07-13T09:41:37;2.45;;;1.40;;
10910;SDS011;5508;49.150;11.030;2023-07-13T09:44:53;3.35;;;1.40;;
10910;SDS011;5508;49.150;11.030;2023-07-13T09:48:03;1.75;;;1.05;;
10910;SDS011;5508;49.150;11.030;2023-07-13T09:51:15;2.13;;;1.10;;
10910;SDS011;5508;49.150;11.030;2023-07-13T09:54:17;2.45;;;1.27;;
10910;SDS011;5508;49.150;11.030;2023-07-13T09:57:22;3.83;;;1.45;;
10910;SDS011;5508;49.150;11.030;2023-07-13T10:00:26;2.38;;;1.38;;
10910;SDS011;5508;49.150;11.030;2023-07-13T10:03:30;2.10;;;1.45;;
10910;SDS011;5508;49.150;11.030;2023-07-13T10:06:38;4.15;;;1.30;;
10910;SDS011;5508;49.150;11.030;2023-07-13T10:09:40;3.78;;;1.27;;
10910;SDS011;5508;49.150;11.030;2023-07-13T10:12:41;3.35;;;1.42;;
10910;SDS011;5508;49.150;11.030;2023-07-13T10:15:43;2.05;;;1.20;;
10910;SDS011;5508;49.150;11.030;2023-07-13T10:18:50;3.85;;;1.20;;
10910;SDS011;5508;49.150;11.030;2023-07-13T10:21:55;2.42;;;1.00;;
10910;SDS011;5508;49.150;11.030;2023-07-13T10:25:01;3.47;;;1.30;;
10910;SDS011;5508;49.150;11.030;2023-07-13T10:28:04;4.88;;;1.30;;
10910;SDS011;5508;49.150;11.030;2023-07-13T10:31:16;2.75;;;1.05;;
10910;SDS011;5508;49.150;11.030;2023-07-13T10:34:18;2.35;;;1.35;;
10910;SDS011;5508;49.150;11.030;2023-07-13T10:37:19;2.38;;;1.20;;
10910;SDS011;5508;49.150;11.030;2023-07-13T10:40:27;2.83;;;1.60;;
10910;SDS011;5508;49.150;11.030;2023-07-13T10:43:35;2.55;;;1.38;;
10910;SDS011;5508;49.150;11.030;2023-07-13T10:46:39;1.33;;;1.20;;
10910;SDS011;5508;49.150;11.030;2023-07-13T10:49:41;3.22;;;1.10;;
10910;SDS011;5508;49.150;11.030;2023-07-13T10:52:47;3.63;;;1.30;;
10910;SDS011;5508;49.150;11.030;2023-07-13T10:55:55;2.00;;;1.25;;
10910;SDS011;5508;49.150;11.030;2023-07-13T10:59:46;3.58;;;1.30;;
10910;SDS011;5508;49.150;11.030;2023-07-13T11:02:28;3.00;;;1.17;;
10910;SDS011;5508;49.150;11.030;2023-07-13T11:05:30;1.40;;;1.15;;
10910;SDS011;5508;49.150;11.030;2023-07-13T11:08:34;1.65;;;1.20;;
10910;SDS011;5508;49.150;11.030;2023-07-13T11:11:37;2.72;;;1.10;;
10910;SDS011;5508;49.150;11.030;2023-07-13T11:14:42;3.17;;;1.35;;
10910;SDS011;5508;49.150;11.030;2023-07-13T11:18:04;2.28;;;1.13;;
10910;SDS011;5508;49.150;11.030;2023-07-13T11:21:22;3.22;;;1.20;;
10910;SDS011;5508;49.150;11.030;2023-07-13T11:24:28;3.10;;;1.52;;
10910;SDS011;5508;49.150;11.030;2023-07-13T11:27:44;2.25;;;1.10;;
10910;SDS011;5508;49.150;11.030;2023-07-13T11:33:57;2.03;;;1.00;;
10910;SDS011;5508;49.150;11.030;2023-07-13T11:37:00;2.92;;;1.40;;
10910;SDS011;5508;49.150;11.030;2023-07-13T11:40:01;3.25;;;1.60;;
10910;SDS011;5508;49.150;11.030;2023-07-13T11:43:02;1.90;;;1.20;;
10910;SDS011;5508;49.150;11.030;2023-07-13T11:46:43;2.75;;;1.33;;
10910;SDS011;5508;49.150;11.030;2023-07-13T11:49:40;1.98;;;1.00;;
10910;SDS011;5508;49.150;11.030;2023-07-13T11:52:42;6.45;;;1.45;;
10910;SDS011;5508;49.150;11.030;2023-07-13T11:55:43;9.82;;;1.60;;
10910;SDS011;5508;49.150;11.030;2023-07-13T11:58:50;15.77;;;2.28;;
10910;SDS011;5508;49.150;11.030;2023-07-13T12:01:55;2.55;;;1.40;;
10910;SDS011;5508;49.150;11.030;2023-07-13T12:04:57;3.65;;;1.20;;
10910;SDS011;5508;49.150;11.030;2023-07-13T12:07:59;3.38;;;1.35;;
10910;SDS011;5508;49.150;11.030;2023-07-13T12:11:15;5.90;;;1.20;;
10910;SDS011;5508;49.150;11.030;2023-07-13T12:14:17;5.45;;;1.30;;
10910;SDS011;5508;49.150;11.030;2023-07-13T12:17:19;3.20;;;1.38;;
10910;SDS011;5508;49.150;11.030;2023-07-13T12:20:30;2.60;;;1.20;;
10910;SDS011;5508;49.150;11.030;2023-07-13T12:23:37;5.55;;;1.33;;
10910;SDS011;5508;49.150;11.030;2023-07-13T12:26:38;5.05;;;1.50;;
10910;SDS011;5508;49.150;11.030;2023-07-13T12:29:38;2.95;;;1.25;;
10910;SDS011;5508;49.150;11.030;2023-07-13T12:32:39;2.90;;;1.20;;
10910;SDS011;5508;49.150;11.030;2023-07-13T12:35:49;2.90;;;1.52;;
10910;SDS011;5508;49.150;11.030;2023-07-13T12:38:52;2.13;;;1.10;;
10910;SDS011;5508;49.150;11.030;2023-07-13T12:41:53;2.35;;;1.20;;
10910;SDS011;5508;49.150;11.030;2023-07-13T12:45:17;6.45;;;1.60;;
10910;SDS011;5508;49.150;11.030;2023-07-13T12:48:22;1.33;;;1.10;;
10910;SDS011;5508;49.150;11.030;2023-07-13T12:51:24;4.10;;;1.88;;
10910;SDS011;5508;49.150;11.030;2023-07-13T12:54:26;4.78;;;1.30;;
10910;SDS011;5508;49.150;11.030;2023-07-13T12:57:28;4.05;;;1.30;;
10910;SDS011;5508;49.150;11.030;2023-07-13T13:00:32;2.28;;;1.30;;
10910;SDS011;5508;49.150;11.030;2023-07-13T13:03:37;3.58;;;1.45;;
10910;SDS011;5508;49.150;11.030;2023-07-13T13:06:41;3.55;;;1.20;;
10910;SDS011;5508;49.150;11.030;2023-07-13T13:09:44;2.50;;;1.35;;
10910;SDS011;5508;49.150;11.030;2023-07-13T13:12:45;3.35;;;1.35;;
10910;SDS011;5508;49.150;11.030;2023-07-13T13:15:45;3.55;;;1.65;;
10910;SDS011;5508;49.150;11.030;2023-07-13T13:18:47;3.22;;;1.33;;
10910;SDS011;5508;49.150;11.030;2023-07-13T13:21:54;1.88;;;1.20;;
10910;SDS011;5508;49.150;11.030;2023-07-13T13:24:56;3.88;;;1.38;;
10910;SDS011;5508;49.150;11.030;2023-07-13T13:27:57;2.00;;;1.10;;
10910;SDS011;5508;49.150;11.030;2023-07-13T13:30:57;1.85;;;1.30;;
10910;SDS011;5508;49.150;11.030;2023-07-13T13:33:58;2.47;;;1.38;;
10910;SDS011;5508;49.150;11.030;2023-07-13T13:36:59;12.55;;;2.03;;
10910;SDS011;5508;49.150;11.030;2023-07-13T13:39:59;4.53;;;1.30;;
10910;SDS011;5508;49.150;11.030;2023-07-13T13:43:00;2.55;;;1.33;;
10910;SDS011;5508;49.150;11.030;2023-07-13T13:46:01;3.25;;;1.35;;
10910;SDS011;5508;49.150;11.030;2023-07-13T13:49:01;4.30;;;1.40;;
10910;SDS011;5508;49.150;11.030;2023-07-13T13:52:02;2.63;;;1.52;;
10910;SDS011;5508;49.150;11.030;2023-07-13T13:55:10;2.35;;;1.38;;
10910;SDS011;5508;49.150;11.030;2023-07-13T13:58:12;2.72;;;1.33;;
10910;SDS011;5508;49.150;11.030;2023-07-13T14:01:14;5.22;;;1.33;;
10910;SDS011;5508;49.150;11.030;2023-07-13T14:04:19;4.43;;;1.33;;
10910;SDS011;5508;49.150;11.030;2023-07-13T14:07:21;2.80;;;1.50;;
10910;SDS011;5508;49.150;11.030;2023-07-13T14:10:21;2.72;;;1.48;;
10910;SDS011;5508;49.150;11.030;2023-07-13T14:13:24;2.95;;;1.60;;
10910;SDS011;5508;49.150;11.030;2023-07-13T14:16:31;2.72;;;1.20;;
10910;SDS011;5508;49.150;11.030;2023-07-13T14:19:33;4.30;;;1.52;;
10910;SDS011;5508;49.150;11.030;2023-07-13T14:22:34;3.45;;;1.48;;
10910;SDS011;5508;49.150;11.030;2023-07-13T14:25:34;3.33;;;1.30;;
10910;SDS011;5508;49.150;11.030;2023-07-13T14:28:35;6.40;;;1.27;;
10910;SDS011;5508;49.150;11.030;2023-07-13T14:31:38;2.35;;;1.58;;
10910;SDS011;5508;49.150;11.030;2023-07-13T14:34:39;3.03;;;1.10;;
10910;SDS011;5508;49.150;11.030;2023-07-13T14:37:40;4.15;;;1.45;;
10910;SDS011;5508;49.150;11.030;2023-07-13T14:40:41;4.30;;;1.33;;
10910;SDS011;5508;49.150;11.030;2023-07-13T14:43:42;3.65;;;1.75;;
10910;SDS011;5508;49.150;11.030;2023-07-13T14:46:43;2.78;;;1.50;;
10910;SDS011;5508;49.150;11.030;2023-07-13T14:49:46;4.28;;;1.33;;
10910;SDS011;5508;49.150;11.030;2023-07-13T14:52:47;2.05;;;1.38;;
10910;SDS011;5508;49.150;11.030;2023-07-13T14:55:48;3.53;;;1.30;;
10910;SDS011;5508;49.150;11.030;2023-07-13T14:58:49;3.00;;;1.27;;
10910;SDS011;5508;49.150;11.030;2023-07-13T15:01:49;2.88;;;1.35;;
10910;SDS011;5508;49.150;11.030;2023-07-13T15:04:50;5.35;;;1.60;;
10910;SDS011;5508;49.150;11.030;2023-07-13T15:07:51;5.20;;;1.70;;
10910;SDS011;5508;49.150;11.030;2023-07-13T15:10:53;1.92;;;1.20;;
10910;SDS011;5508;49.150;11.030;2023-07-13T15:13:57;2.75;;;1.20;;
10910;SDS011;5508;49.150;11.030;2023-07-13T15:16:58;2.60;;;1.45;;
10910;SDS011;5508;49.150;11.030;2023-07-13T15:19:59;3.20;;;1.40;;
10910;SDS011;5508;49.150;11.030;2023-07-13T15:23:00;5.68;;;1.90;;
10910;SDS011;5508;49.150;11.030;2023-07-13T15:26:01;4.30;;;1.23;;
10910;SDS011;5508;49.150;11.030;2023-07-13T15:29:03;3.53;;;1.20;;
10910;SDS011;5508;49.150;11.030;2023-07-13T15:32:05;2.53;;;1.30;;
10910;SDS011;5508;49.150;11.030;2023-07-13T15:35:13;2.88;;;1.10;;
10910;SDS011;5508;49.150;11.030;2023-07-13T15:38:27;2.83;;;1.48;;
10910;SDS011;5508;49.150;11.030;2023-07-13T15:41:30;2.05;;;1.23;;
10910;SDS011;5508;49.150;11.030;2023-07-13T15:44:31;4.60;;;1.55;;
10910;SDS011;5508;49.150;11.030;2023-07-13T15:47:32;4.30;;;1.48;;
10910;SDS011;5508;49.150;11.030;2023-07-13T15:50:39;1.75;;;1.35;;
10910;SDS011;5508;49.150;11.030;2023-07-13T15:53:43;2.95;;;1.60;;
10910;SDS011;5508;49.150;11.030;2023-07-13T15:56:45;3.03;;;1.25;;
10910;SDS011;5508;49.150;11.030;2023-07-13T15:59:50;3.20;;;1.42;;
10910;SDS011;5508;49.150;11.030;2023-07-13T16:02:51;4.57;;;1.55;;
10910;SDS011;5508;49.150;11.030;2023-07-13T16:05:52;2.03;;;1.20;;
10910;SDS011;5508;49.150;11.030;2023-07-13T16:08:54;3.42;;;1.20;;
10910;SDS011;5508;49.150;11.030;2023-07-13T16:11:55;2.22;;;1.25;;
10910;SDS011;5508;49.150;11.030;2023-07-13T16:14:57;1.90;;;1.30;;
10910;SDS011;5508;49.150;11.030;2023-07-13T16:17:58;2.15;;;1.27;;
10910;SDS011;5508;49.150;11.030;2023-07-13T16:20:58;3.13;;;1.50;;
10910;SDS011;5508;49.150;11.030;2023-07-13T16:24:00;4.00;;;1.30;;
10910;SDS011;5508;49.150;11.030;2023-07-13T16:27:01;1.58;;;1.10;;
10910;SDS011;5508;49.150;11.030;2023-07-13T16:30:10;3.25;;;1.40;;
10910;SDS011;5508;49.150;11.030;2023-07-13T16:33:12;2.45;;;1.17;;
10910;SDS011;5508;49.150;11.030;2023-07-13T16:36:13;2.88;;;1.30;;
10910;SDS011;5508;49.150;11.030;2023-07-13T16:39:13;2.38;;;1.45;;
10910;SDS011;5508;49.150;11.030;2023-07-13T16:42:15;2.83;;;1.10;;
10910;SDS011;5508;49.150;11.030;2023-07-13T16:45:16;3.38;;;1.23;;
10910;SDS011;5508;49.150;11.030;2023-07-13T16:48:18;3.85;;;1.90;;
10910;SDS011;5508;49.150;11.030;2023-07-13T16:51:20;2.90;;;1.85;;
10910;SDS011;5508;49.150;11.030;2023-07-13T16:54:21;2.65;;;1.88;;
10910;SDS011;5508;49.150;11.030;2023-07-13T16:57:23;3.28;;;1.35;;
10910;SDS011;5508;49.150;11.030;2023-07-13T17:00:30;4.68;;;2.15;;
10910;SDS011;5508;49.150;11.030;2023-07-13T17:03:32;2.72;;;1.63;;
10910;SDS011;5508;49.150;11.030;2023-07-13T17:06:33;4.28;;;2.17;;
10910;SDS011;5508;49.150;11.030;2023-07-13T17:09:33;4.30;;;2.00;;
10910;SDS011;5508;49.150;11.030;2023-07-13T17:12:34;4.20;;;2.95;;
10910;SDS011;5508;49.150;11.030;2023-07-13T17:15:35;2.22;;;1.50;;
10910;SDS011;5508;49.150;11.030;2023-07-13T17:18:36;4.00;;;1.65;;
10910;SDS011;5508;49.150;11.030;2023-07-13T17:21:37;3.78;;;1.63;;
10910;SDS011;5508;49.150;11.030;2023-07-13T17:24:38;3.83;;;2.05;;
10910;SDS011;5508;49.150;11.030;2023-07-13T17:27:39;3.10;;;2.00;;
10910;SDS011;5508;49.150;11.030;2023-07-13T17:30:41;2.83;;;2.15;;
10910;SDS011;5508;49.150;11.030;2023-07-13T17:33:43;2.08;;;1.30;;
10910;SDS011;5508;49.150;11.030;2023-07-13T17:36:48;1.73;;;1.48;;
10910;SDS011;5508;49.150;11.030;2023-07-13T17:39:48;2.80;;;1.20;;
10910;SDS011;5508;49.150;11.030;2023-07-13T17:42:49;2.60;;;1.40;;
10910;SDS011;5508;49.150;11.030;2023-07-13T17:45:57;3.33;;;1.52;;
10910;SDS011;5508;49.150;11.030;2023-07-13T17:48:57;2.55;;;1.42;;
10910;SDS011;5508;49.150;11.030;2023-07-13T17:51:59;4.45;;;1.30;;
10910;SDS011;5508;49.150;11.030;2023-07-13T17:55:08;2.30;;;1.42;;
10910;SDS011;5508;49.150;11.030;2023-07-13T17:58:16;2.63;;;1.30;;
10910;SDS011;5508;49.150;11.030;2023-07-13T18:01:18;2.05;;;1.38;;
10910;SDS011;5508;49.150;11.030;2023-07-13T18:04:20;3.75;;;1.77;;
10910;SDS011;5508;49.150;11.030;2023-07-13T18:07:22;4.72;;;1.50;;
10910;SDS011;5508;49.150;11.030;2023-07-13T18:10:28;3.65;;;1.60;;
10910;SDS011;5508;49.150;11.030;2023-07-13T18:13:30;2.63;;;1.73;;
10910;SDS011;5508;49.150;11.030;2023-07-13T18:16:39;3.90;;;1.50;;
10910;SDS011;5508;49.150;11.030;2023-07-13T18:19:45;1.73;;;1.33;;
10910;SDS011;5508;49.150;11.030;2023-07-13T18:22:49;3.58;;;1.13;;
10910;SDS011;5508;49.150;11.030;2023-07-13T18:25:53;4.60;;;1.38;;
10910;SDS011;5508;49.150;11.030;2023-07-13T18:28:54;1.80;;;1.30;;
10910;SDS011;5508;49.150;11.030;2023-07-13T18:31:54;2.90;;;1.20;;